Time;durP1;ratioP1;P1;durP2;ratioP2;P2;SDS_P1;SDS_P2;PMS_P1;PMS_P2;Temp;Humidity;BMP_temperature;BMP_pressure;BME280_temperature;BME280_humidity;BME280_pressure;Samples;Min_cycle;Max_cycle;Signal;HPM_P1;HPM_P2
2022/01/15 00:00:29;;;;;;;1999.90;999.90;;;;;;;-0.79;65.62;102695.28;4970804;28;96995;-72
2022/01/15 00:02:57;;;;;;;1999.90;999.90;;;;;;;-0.82;65.60;102691.63;5011867;22;98863;-70
2022/01/15 00:05:25;;;;;;;1999.90;999.90;;;;;;;-0.86;65.69;102689.47;4993058;28;98293;-73
2022/01/15 00:07:53;;;;;;;1999.90;999.90;;;;;;;-0.82;65.40;102701.13;5003221;28;97556;-71
2022/01/15 00:10:26;;;;;;;1999.90;999.90;;;;;;;-0.84;65.64;102702.69;4995353;28;97038;-71
2022/01/15 00:12:53;;;;;;;1999.90;999.90;;;;;;;-0.87;65.64;102699.78;5002552;28;100994;-71
2022/01/15 00:15:27;;;;;;;1999.90;999.90;;;;;;;-0.85;65.39;102700.84;5007126;28;97574;-71
2022/01/15 00:17:59;;;;;;;1999.90;999.90;;;;;;;-0.88;65.62;102692.69;5028998;27;97963;-71
2022/01/15 00:20:28;;;;;;;1999.90;999.90;;;;;;;-0.89;65.61;102693.47;5011551;27;97223;-71
2022/01/15 00:22:58;;;;;;;1999.90;999.90;;;;;;;-0.89;65.96;102686.56;5004727;28;101068;-71
2022/01/15 00:25:28;;;;;;;1999.90;999.90;;;;;;;-0.93;65.85;102686.09;5001431;28;101208;-71
2022/01/15 00:27:56;;;;;;;1999.90;999.90;;;;;;;-0.96;65.57;102685.81;5007717;28;96821;-71
2022/01/15 00:30:25;;;;;;;1999.90;999.90;;;;;;;-1.00;65.87;102688.91;5011639;28;98765;-70
2022/01/15 00:32:53;;;;;;;1999.90;999.90;;;;;;;-1.01;65.76;102692.25;5005190;28;97967;-70
2022/01/15 00:35:23;;;;;;;1999.90;999.90;;;;;;;-1.04;65.78;102691.97;5015703;28;96902;-70
2022/01/15 00:37:51;;;;;;;1999.90;999.90;;;;;;;-1.09;65.98;102693.22;4979713;28;96991;-71
2022/01/15 00:40:20;;;;;;;1999.90;999.90;;;;;;;-1.13;65.85;102698.91;5012162;27;97222;-71
2022/01/15 00:42:48;;;;;;;1999.90;999.90;;;;;;;-1.15;66.08;102703.06;4997583;28;99187;-71
2022/01/15 00:45:21;;;;;;;1999.90;999.90;;;;;;;-1.16;65.83;102706.47;4998508;28;99624;-70
2022/01/15 00:47:51;;;;;;;1999.90;999.90;;;;;;;-1.19;65.94;102700.91;4997560;28;98798;-71
2022/01/15 00:50:20;;;;;;;1999.90;999.90;;;;;;;-1.22;66.06;102705.84;5002033;28;97992;-71
2022/01/15 00:52:48;;;;;;;1999.90;999.90;;;;;;;-1.26;65.64;102699.41;5007802;28;99534;-71
2022/01/15 00:55:18;;;;;;;1999.90;999.90;;;;;;;-1.26;66.14;102708.91;4999929;28;100819;-70
2022/01/15 00:57:45;;;;;;;1999.90;999.90;;;;;;;-1.29;65.63;102700.78;4999821;28;97962;-70
2022/01/15 01:00:17;;;;;;;1999.90;999.90;;;;;;;-1.32;65.79;102703.13;5028876;27;98603;-70
2022/01/15 01:02:45;;;;;;;1999.90;999.90;;;;;;;-1.35;66.09;102697.56;4998215;28;99685;-71
2022/01/15 01:05:15;;;;;;;1999.90;999.90;;;;;;;-1.38;66.29;102697.28;5001748;28;100291;-71
2022/01/15 01:07:43;;;;;;;1999.90;999.90;;;;;;;-1.43;66.32;102685.47;4999143;28;96852;-71
2022/01/15 01:10:29;;;;;;;1999.90;999.90;;;;;;;-1.40;65.68;102693.59;4984245;28;98520;-71
2022/01/15 01:13:14;;;;;;;1999.90;999.90;;;;;;;-1.42;66.22;102702.94;5001489;28;99263;-71
2022/01/15 01:21:40;;;;;;;1999.90;999.90;;;;;;;-1.48;66.16;102678.84;4981665;28;97908;-71
2022/01/15 01:24:04;;;;;;;1999.90;999.90;;;;;;;-1.53;65.98;102685.28;4998287;28;99046;-71
2022/01/15 01:26:40;;;;;;;1999.90;999.90;;;;;;;-1.57;65.86;102688.38;4979932;28;100143;-71
2022/01/15 01:29:17;;;;;;;1999.90;999.90;;;;;;;-1.60;66.25;102690.69;5007637;28;99322;-71
2022/01/15 01:31:56;;;;;;;1999.90;999.90;;;;;;;-1.59;66.57;102689.91;5012037;28;98717;-72
2022/01/15 01:34:26;;;;;;;1999.90;999.90;;;;;;;-1.59;66.75;102697.72;5001151;28;99618;-70
2022/01/15 01:37:01;;;;;;;1999.90;999.90;;;;;;;-1.61;66.05;102688.81;4997967;28;99308;-71
2022/01/15 01:39:38;;;;;;;1999.90;999.90;;;;;;;-1.61;66.55;102686.22;5013844;28;97312;-70
2022/01/15 01:42:12;;;;;;;1999.90;999.90;;;;;;;-1.62;66.12;102695.75;5008817;28;97148;-71
2022/01/15 01:44:42;;;;;;;1999.90;999.90;;;;;;;-1.66;65.94;102692.66;4996819;28;101599;-71
2022/01/15 01:47:21;;;;;;;1999.90;999.90;;;;;;;-1.70;66.16;102685.28;4993982;28;99247;-71
2022/01/15 01:49:49;;;;;;;1999.90;999.90;;;;;;;-1.75;66.01;102676.09;5010326;28;99767;-72
2022/01/15 01:52:18;;;;;;;1999.90;999.90;;;;;;;-1.75;66.16;102678.69;4996029;28;97147;-72
2022/01/15 01:54:46;;;;;;;1999.90;999.90;;;;;;;-1.76;66.33;102679.47;5011758;28;97148;-72
2022/01/15 01:57:13;;;;;;;1999.90;999.90;;;;;;;-1.75;66.48;102678.69;5022118;27;100076;-72
2022/01/15 01:59:41;;;;;;;1999.90;999.90;;;;;;;-1.72;66.31;102679.91;5008069;27;96830;-72
2022/01/15 02:02:09;;;;;;;1999.90;999.90;;;;;;;-1.71;66.15;102675.63;5001249;28;97711;-71
2022/01/15 02:04:37;;;;;;;1999.90;999.90;;;;;;;-1.73;66.56;102669.34;4997458;28;99252;-71
2022/01/15 02:07:05;;;;;;;1999.90;999.90;;;;;;;-1.76;66.68;102661.22;4996887;28;99494;-71
2022/01/15 02:09:35;;;;;;;1999.90;999.90;;;;;;;-1.77;66.34;102656.75;5009409;28;96993;-71
2022/01/15 02:12:03;;;;;;;1999.90;999.90;;;;;;;-1.77;66.72;102664.56;4999512;28;98937;-71
2022/01/15 02:14:31;;;;;;;1999.90;999.90;;;;;;;-1.74;65.86;102668.41;5004824;28;98745;-71
2022/01/15 02:16:59;;;;;;;1999.90;999.90;;;;;;;-1.73;66.47;102667.66;4996965;28;100695;-71
2022/01/15 02:19:31;;;;;;;1999.90;999.90;;;;;;;-1.73;65.83;102661.50;5002342;28;98570;-70
2022/01/15 02:24:45;;;;;;;1999.90;999.90;;;;;;;-1.75;66.27;102657.81;5015544;28;101674;-70
2022/01/15 02:27:13;;;;;;;1999.90;999.90;;;;;;;-1.74;66.56;102651.84;5007880;28;98907;-70
2022/01/15 02:29:40;;;;;;;1999.90;999.90;;;;;;;-1.73;66.58;102645.84;5006536;27;99379;-70
2022/01/15 02:32:08;;;;;;;1999.90;999.90;;;;;;;-1.78;66.24;102652.31;4991158;28;97167;-71
2022/01/15 02:34:37;;;;;;;1999.90;999.90;;;;;;;-1.83;66.11;102650.94;4992746;28;98737;-71
2022/01/15 02:37:06;;;;;;;1999.90;999.90;;;;;;;-1.82;66.37;102651.97;5001550;28;100046;-70
2022/01/15 02:39:35;;;;;;;1999.90;999.90;;;;;;;-1.82;66.18;102642.31;5003900;28;101454;-71
2022/01/15 02:42:03;;;;;;;1999.90;999.90;;;;;;;-1.82;66.39;102643.25;4994317;28;98973;-70
2022/01/15 02:44:37;;;;;;;1999.90;999.90;;;;;;;-1.83;66.51;102648.31;5002414;28;98166;-70
2022/01/15 02:49:53;;;;;;;1999.90;999.90;;;;;;;-1.80;66.17;102656.44;5009953;28;97948;-71
2022/01/15 02:52:21;;;;;;;1999.90;999.90;;;;;;;-1.80;65.83;102648.63;5005288;28;99307;-71
2022/01/15 02:54:49;;;;;;;1999.90;999.90;;;;;;;-1.75;65.79;102644.78;5001955;28;99350;-71
2022/01/15 02:57:16;;;;;;;1999.90;999.90;;;;;;;-1.66;65.41;102637.84;5007517;28;99728;-71
2022/01/15 02:59:45;;;;;;;1999.90;999.90;;;;;;;-1.89;66.10;102633.88;5003126;28;98587;-71
2022/01/15 03:02:13;;;;;;;1999.90;999.90;;;;;;;-1.96;65.94;102649.69;5004128;28;98829;-71
2022/01/15 03:04:41;;;;;;;1999.90;999.90;;;;;;;-1.98;66.20;102648.59;4998911;28;100449;-71
2022/01/15 03:07:10;;;;;;;1999.90;999.90;;;;;;;-1.98;66.33;102645.09;5000177;28;99414;-71
2022/01/15 03:09:40;;;;;;;1999.90;999.90;;;;;;;-2.04;65.91;102645.41;5009803;28;96975;-71
2022/01/15 03:12:09;;;;;;;1999.90;999.90;;;;;;;-2.11;66.41;102632.47;5012924;28;97430;-71
2022/01/15 03:14:36;;;;;;;1999.90;999.90;;;;;;;-2.20;66.69;102639.34;5012631;28;98734;-71
2022/01/15 03:17:05;;;;;;;1999.90;999.90;;;;;;;-2.26;66.40;102636.13;5000565;28;98647;-70
2022/01/15 03:19:41;;;;;;;1999.90;999.90;;;;;;;-2.29;66.27;102634.91;5008307;28;97123;-72
2022/01/15 03:22:10;;;;;;;1999.90;999.90;;;;;;;-2.37;66.35;102641.00;5000619;28;97856;-72
2022/01/15 03:24:38;;;;;;;1999.90;999.90;;;;;;;-2.40;66.59;102645.91;4999194;28;100448;-71
2022/01/15 03:27:06;;;;;;;1999.90;999.90;;;;;;;-2.42;66.59;102647.44;5016135;27;98880;-71
2022/01/15 03:29:34;;;;;;;1999.90;999.90;;;;;;;-2.44;66.77;102642.09;5010097;28;99319;-71
2022/01/15 03:32:02;;;;;;;1999.90;999.90;;;;;;;-2.46;66.81;102634.84;5006762;28;98232;-71
2022/01/15 03:34:30;;;;;;;1999.90;999.90;;;;;;;-2.53;66.48;102628.09;5002656;28;99279;-71
2022/01/15 03:36:58;;;;;;;1999.90;999.90;;;;;;;-2.58;67.15;102623.19;4987035;28;100748;-71
2022/01/15 03:39:27;;;;;;;1999.90;999.90;;;;;;;-2.60;66.32;102633.44;5009929;28;97708;-71
2022/01/15 03:41:54;;;;;;;1999.90;999.90;;;;;;;-2.62;66.77;102634.06;5000077;28;97826;-71
2022/01/15 03:44:22;;;;;;;1999.90;999.90;;;;;;;-2.69;67.09;102618.56;5005229;28;97294;-71
2022/01/15 03:46:50;;;;;;;1999.90;999.90;;;;;;;-2.69;66.53;102615.94;5008433;27;98893;-71
2022/01/15 03:49:18;;;;;;;1999.90;999.90;;;;;;;-2.79;66.71;102616.69;5018238;27;98055;-71
2022/01/15 03:51:45;;;;;;;1999.90;999.90;;;;;;;-2.86;67.33;102627.22;5003012;28;97630;-71
2022/01/15 03:54:13;;;;;;;1999.90;999.90;;;;;;;-2.93;66.94;102628.25;5006712;28;98168;-71
2022/01/15 03:56:42;;;;;;;1999.90;999.90;;;;;;;-3.00;67.20;102624.84;4999581;28;99699;-72
2022/01/15 03:59:10;;;;;;;1999.90;999.90;;;;;;;-3.05;67.10;102613.03;5011152;28;97685;-71
2022/01/15 04:01:37;;;;;;;1999.90;999.90;;;;;;;-3.09;67.61;102613.47;5008928;28;99024;-71
2022/01/15 04:04:05;;;;;;;1999.90;999.90;;;;;;;-3.13;67.57;102607.03;5006316;28;98593;-72
2022/01/15 04:06:33;;;;;;;1999.90;999.90;;;;;;;-3.15;67.71;102610.25;5000902;28;100798;-71
2022/01/15 04:09:01;;;;;;;1999.90;999.90;;;;;;;-3.16;67.39;102592.78;5009202;28;98154;-71
2022/01/15 04:11:28;;;;;;;1999.90;999.90;;;;;;;-3.20;67.35;102599.34;4978309;28;99274;-71
2022/01/15 04:13:57;;;;;;;1999.90;999.90;;;;;;;-3.22;67.26;102606.06;5001403;28;97709;-70
2022/01/15 04:16:25;;;;;;;1999.90;999.90;;;;;;;-3.19;67.17;102608.09;4999234;28;98413;-71
2022/01/15 04:18:53;;;;;;;1999.90;999.90;;;;;;;-3.21;67.61;102618.34;5003494;28;99208;-71
2022/01/15 04:21:21;;;;;;;1999.90;999.90;;;;;;;-3.19;67.49;102608.09;5014229;28;97220;-70
2022/01/15 04:23:48;;;;;;;1999.90;999.90;;;;;;;-3.19;66.88;102605.47;4998402;28;97802;-72
2022/01/15 04:26:18;;;;;;;1999.90;999.90;;;;;;;-3.19;67.26;102601.22;5011071;28;98245;-71
2022/01/15 04:28:46;;;;;;;1999.90;999.90;;;;;;;-3.16;66.68;102598.91;5010084;28;98895;-71
2022/01/15 04:31:16;;;;;;;1999.90;999.90;;;;;;;-3.17;67.25;102598.75;5008529;28;98107;-71
2022/01/15 04:33:45;;;;;;;1999.90;999.90;;;;;;;-3.14;66.75;102592.19;4984516;28;101342;-71
2022/01/15 04:36:12;;;;;;;1999.90;999.90;;;;;;;-3.12;66.32;102597.53;5010117;27;98771;-71
2022/01/15 04:38:45;;;;;;;1999.90;999.90;;;;;;;-3.07;66.84;102593.72;5007008;27;97601;-71
2022/01/15 04:41:12;;;;;;;1999.90;999.90;;;;;;;-3.04;66.58;102592.38;5004212;28;97000;-71
2022/01/15 04:43:40;;;;;;;1999.90;999.90;;;;;;;-2.99;66.74;102590.25;5007661;28;99885;-72
2022/01/15 04:46:08;;;;;;;1999.90;999.90;;;;;;;-3.03;66.68;102599.44;5001704;28;97715;-71
2022/01/15 04:48:37;;;;;;;1999.90;999.90;;;;;;;-2.99;66.41;102592.84;5009478;28;98244;-72
2022/01/15 04:51:04;;;;;;;1999.90;999.90;;;;;;;-2.97;66.29;102588.72;5011524;28;97483;-71
2022/01/15 04:53:32;;;;;;;1999.90;999.90;;;;;;;-2.97;66.78;102593.94;5007768;27;98375;-71
2022/01/15 04:55:59;;;;;;;1999.90;999.90;;;;;;;-2.95;66.56;102590.72;5011630;28;97776;-71
2022/01/15 04:58:27;;;;;;;1999.90;999.90;;;;;;;-2.97;66.04;102592.25;5009080;28;98152;-71
2022/01/15 05:00:55;;;;;;;1999.90;999.90;;;;;;;-2.95;66.71;102593.31;5023450;27;98010;-71
2022/01/15 05:03:23;;;;;;;1999.90;999.90;;;;;;;-2.91;66.15;102599.78;5008746;27;98044;-70
2022/01/15 05:05:52;;;;;;;1999.90;999.90;;;;;;;-2.88;66.00;102595.81;4995552;28;98769;-71
2022/01/15 05:08:20;;;;;;;1999.90;999.90;;;;;;;-2.88;66.26;102595.81;4996389;28;98102;-70
2022/01/15 05:10:48;;;;;;;1999.90;999.90;;;;;;;-2.98;66.62;102602.50;4999620;28;100042;-71
2022/01/15 05:13:19;;;;;;;1999.90;999.90;;;;;;;-2.98;66.76;102607.72;4998149;28;100623;-71
2022/01/15 05:15:47;;;;;;;1999.90;999.90;;;;;;;-2.99;66.80;102617.22;4979117;28;98432;-71
2022/01/15 05:18:15;;;;;;;1999.90;999.90;;;;;;;-2.99;66.09;102616.28;5001506;28;97124;-70
2022/01/15 05:20:44;;;;;;;1999.90;999.90;;;;;;;-3.00;66.21;102615.38;5002713;28;98672;-70
2022/01/15 05:23:13;;;;;;;1999.90;999.90;;;;;;;-2.98;66.48;102620.72;5004292;28;99617;-71
2022/01/15 05:25:41;;;;;;;1999.90;999.90;;;;;;;-2.99;66.26;102618.91;5004154;28;98079;-70
2022/01/15 05:28:09;;;;;;;1999.90;999.90;;;;;;;-2.99;66.73;102617.22;5006829;28;98268;-71
2022/01/15 05:30:36;;;;;;;1999.90;999.90;;;;;;;-2.94;66.20;102622.91;5003310;28;98053;-71
2022/01/15 05:33:04;;;;;;;1999.90;999.90;;;;;;;-3.01;66.26;102623.97;5017248;27;100690;-71
2022/01/15 05:35:32;;;;;;;1999.90;999.90;;;;;;;-3.02;66.43;102622.09;5006280;28;98096;-71
2022/01/15 05:38:00;;;;;;;1999.90;999.90;;;;;;;-3.00;66.31;102624.84;4989730;28;96896;-71
2022/01/15 05:40:29;;;;;;;1999.90;999.90;;;;;;;-3.00;66.91;102619.66;5004040;28;97418;-70
2022/01/15 05:42:57;;;;;;;1999.90;999.90;;;;;;;-2.98;66.48;102615.53;5003958;28;97261;-70
2022/01/15 05:45:25;;;;;;;1999.90;999.90;;;;;;;-2.97;66.83;102626.13;4986935;28;100043;-70
2022/01/15 05:47:53;;;;;;;1999.90;999.90;;;;;;;-2.98;66.94;102624.25;5007525;28;98194;-71
2022/01/15 05:50:21;;;;;;;1999.90;999.90;;;;;;;-2.94;66.36;102630.72;4986057;28;98539;-70
2022/01/15 05:52:49;;;;;;;1999.90;999.90;;;;;;;-2.94;66.42;102625.50;5005047;28;98885;-70
2022/01/15 05:55:16;;;;;;;1999.90;999.90;;;;;;;-2.97;66.96;102620.91;5006406;28;100534;-71
2022/01/15 05:57:46;;;;;;;1999.90;999.90;;;;;;;-2.98;66.89;102631.16;5002661;28;96990;-71
2022/01/15 06:00:14;;;;;;;1999.90;999.90;;;;;;;-2.96;66.49;102635.75;5015098;27;96831;-71
2022/01/15 06:02:42;;;;;;;1999.90;999.90;;;;;;;-2.97;66.54;102633.00;5001664;28;97729;-70
2022/01/15 06:05:10;;;;;;;1999.90;999.90;;;;;;;-2.98;66.42;102616.44;5005393;28;96736;-71
2022/01/15 06:07:38;;;;;;;1999.90;999.90;;;;;;;-2.98;66.38;102618.13;5020822;27;98224;-71
2022/01/15 06:10:06;;;;;;;1999.90;999.90;;;;;;;-2.99;66.39;102622.44;5001401;28;99254;-71
2022/01/15 06:12:42;;;;;;;1999.90;999.90;;;;;;;-2.98;66.62;102620.72;5004318;28;97882;-71
2022/01/15 06:15:13;;;;;;;1999.90;999.90;;;;;;;-2.98;66.58;102624.25;5001638;28;98529;-72
2022/01/15 06:17:41;;;;;;;1999.90;999.90;;;;;;;-2.97;66.03;102620.00;4988853;28;97373;-71
2022/01/15 06:20:11;;;;;;;1999.90;999.90;;;;;;;-2.97;66.26;102625.19;5000262;28;97133;-71
2022/01/15 06:22:39;;;;;;;1999.90;999.90;;;;;;;-2.97;66.52;102625.19;5015942;27;101142;-71
2022/01/15 06:25:07;;;;;;;1999.90;999.90;;;;;;;-2.97;66.60;102614.78;5002472;28;98676;-72
2022/01/15 06:27:35;;;;;;;1999.90;999.90;;;;;;;-2.97;66.09;102610.50;5002934;28;96882;-72
2022/01/15 06:30:05;;;;;;;1999.90;999.90;;;;;;;-2.99;66.20;102608.47;5004486;28;99175;-71
2022/01/15 06:32:36;;;;;;;1999.90;999.90;;;;;;;-3.01;66.44;102610.00;5002389;28;100432;-72
2022/01/15 06:35:09;;;;;;;1999.90;999.90;;;;;;;-3.05;65.86;102611.38;5003883;28;97748;-72
2022/01/15 06:37:37;;;;;;;1999.90;999.90;;;;;;;-3.06;66.10;102614.75;5005924;28;98059;-72
2022/01/15 06:40:07;;;;;;;1999.90;999.90;;;;;;;-3.06;66.51;102614.75;5001750;28;99541;-72
2022/01/15 06:42:34;;;;;;;1999.90;999.90;;;;;;;-3.04;65.88;102620.13;5015855;27;96945;-70
2022/01/15 06:45:03;;;;;;;1999.90;999.90;;;;;;;-3.05;66.11;102628.66;5000420;28;97934;-70
2022/01/15 06:47:30;;;;;;;1999.90;999.90;;;;;;;-3.07;66.14;102627.59;5001183;28;97517;-70
2022/01/15 06:50:04;;;;;;;1999.90;999.90;;;;;;;-3.08;66.28;102628.34;4988570;28;96989;-69
2022/01/15 06:52:33;;;;;;;1999.90;999.90;;;;;;;-3.07;66.49;102627.59;5001967;28;98141;-70
2022/01/15 06:55:00;;;;;;;1999.90;999.90;;;;;;;-3.03;66.24;102629.75;5004390;28;98700;-70
2022/01/15 06:57:28;;;;;;;1999.90;999.90;;;;;;;-2.98;66.59;102631.16;5001106;28;98982;-70
2022/01/15 06:59:56;;;;;;;1999.90;999.90;;;;;;;-2.97;66.56;102627.81;5018430;27;98642;-70
2022/01/15 07:02:23;;;;;;;1999.90;999.90;;;;;;;-2.94;66.24;102635.91;4985115;28;100804;-70
2022/01/15 07:04:51;;;;;;;1999.90;999.90;;;;;;;-2.90;66.44;102628.59;5003550;28;96943;-70
2022/01/15 07:07:20;;;;;;;1999.90;999.90;;;;;;;-2.87;66.05;102627.97;4995460;28;97069;-70
2022/01/15 07:09:48;;;;;;;1999.90;999.90;;;;;;;-2.83;66.64;102619.72;4997202;28;97150;-70
2022/01/15 07:12:16;;;;;;;1999.90;999.90;;;;;;;-2.80;66.27;102629.56;4993070;28;98051;-70
2022/01/15 07:14:44;;;;;;;1999.90;999.90;;;;;;;-2.77;66.67;102625.56;4996204;28;99293;-70
2022/01/15 07:17:11;;;;;;;1999.90;999.90;;;;;;;-2.73;65.93;102619.00;4995451;28;98342;-70
2022/01/15 07:19:39;;;;;;;1999.90;999.90;;;;;;;-2.68;65.90;102616.09;4999605;28;96920;-70
2022/01/15 07:22:07;;;;;;;1999.90;999.90;;;;;;;-2.64;65.74;102615.66;4998919;28;98613;-71
2022/01/15 07:24:36;;;;;;;1999.90;999.90;;;;;;;-2.62;65.94;102621.97;4999556;28;99133;-70
2022/01/15 07:27:05;;;;;;;1999.90;999.90;;;;;;;-2.58;66.40;102624.09;5001021;28;96876;-70
2022/01/15 07:29:36;;;;;;;1999.90;999.90;;;;;;;-2.55;65.82;102623.50;5002504;28;96791;-70
2022/01/15 07:32:05;;;;;;;1999.90;999.90;;;;;;;-2.52;65.64;102627.34;5001201;28;98841;-70
2022/01/15 07:34:33;;;;;;;1999.90;999.90;;;;;;;-2.48;65.50;102629.50;5000178;28;100988;-69
2022/01/15 07:37:01;;;;;;;1999.90;999.90;;;;;;;-2.46;65.92;102621.81;4999767;28;98587;-70
2022/01/15 07:39:29;;;;;;;1999.90;999.90;;;;;;;-2.43;66.32;102622.13;4999940;28;96944;-70
2022/01/15 07:42:00;;;;;;;1999.90;999.90;;;;;;;-2.43;65.96;102623.06;5015354;27;99012;-71
2022/01/15 07:44:28;;;;;;;1999.90;999.90;;;;;;;-2.41;65.48;102626.75;4981244;28;99737;-71
2022/01/15 07:46:56;;;;;;;1999.90;999.90;;;;;;;-2.36;65.35;102632.44;4978638;28;97757;-73
2022/01/15 07:49:24;;;;;;;1999.90;999.90;;;;;;;-2.35;65.27;102627.38;4995737;28;97570;-71
2022/01/15 07:51:52;;;;;;;1999.90;999.90;;;;;;;-2.34;65.56;102631.81;4995812;28;98797;-71
2022/01/15 07:54:19;;;;;;;1999.90;999.90;;;;;;;-2.33;66.23;102632.75;4998645;28;98138;-70
2022/01/15 07:56:47;;;;;;;1999.90;999.90;;;;;;;-2.34;65.55;102629.22;4991400;28;98068;-73
2022/01/15 07:59:16;;;;;;;1999.90;999.90;;;;;;;-2.31;65.41;102632.13;4997192;28;96901;-69
2022/01/15 08:01:44;;;;;;;1999.90;999.90;;;;;;;-2.30;65.83;102633.97;4990244;28;99464;-68
2022/01/15 08:04:11;;;;;;;1999.90;999.90;;;;;;;-2.28;65.94;102634.13;4992944;28;99800;-67
2022/01/15 08:06:40;;;;;;;1999.90;999.90;;;;;;;-2.27;66.24;102635.97;4992263;28;98890;-72
2022/01/15 08:09:08;;;;;;;1999.90;999.90;;;;;;;-2.26;66.34;102636.13;4990250;28;97801;-67
2022/01/15 08:11:36;;;;;;;1999.90;999.90;;;;;;;-2.20;65.76;102647.16;4992444;28;99552;-67
2022/01/15 08:14:04;;;;;;;1999.90;999.90;;;;;;;-2.20;66.15;102649.78;4995107;28;99725;-66
2022/01/15 08:16:33;;;;;;;1999.90;999.90;;;;;;;-2.18;65.87;102647.34;4997228;28;97693;-66
2022/01/15 08:19:01;;;;;;;1999.90;999.90;;;;;;;-2.17;65.78;102652.75;4996597;28;98494;-65
2022/01/15 08:21:28;;;;;;;1999.90;999.90;;;;;;;-2.14;65.48;102647.84;5012147;27;98145;-66
2022/01/15 08:23:56;;;;;;;1999.90;999.90;;;;;;;-2.10;65.99;102647.38;4978752;28;98886;-65
2022/01/15 08:26:24;;;;;;;1999.90;999.90;;;;;;;-2.11;65.74;102645.50;4997338;28;98748;-66
2022/01/15 08:28:53;;;;;;;1999.90;999.90;;;;;;;-2.07;65.37;102649.38;4997714;28;97373;-66
2022/01/15 08:31:21;;;;;;;1999.90;999.90;;;;;;;-2.04;66.08;102644.47;4989663;28;100157;-67
2022/01/15 08:33:50;;;;;;;1999.90;999.90;;;;;;;-2.03;65.51;102643.69;4997368;28;98290;-67
2022/01/15 08:36:18;;;;;;;1999.90;999.90;;;;;;;-2.09;66.14;102643.09;4992287;28;99216;-68
2022/01/15 08:38:46;;;;;;;1999.90;999.90;;;;;;;-2.08;65.51;102643.25;4992092;28;97382;-67
2022/01/15 08:41:23;;;;;;;1999.90;999.90;;;;;;;-2.06;65.80;102646.94;4991561;28;98654;-67
2022/01/15 08:43:51;;;;;;;1999.90;999.90;;;;;;;-2.03;65.35;102648.91;4987873;28;98470;-67
2022/01/15 08:46:20;;;;;;;1999.90;999.90;;;;;;;-2.00;66.06;102650.13;5004844;27;97372;-69
2022/01/15 08:48:48;;;;;;;1999.90;999.90;;;;;;;-1.99;65.52;102652.00;5005120;28;97914;-68
2022/01/15 08:51:17;;;;;;;1999.90;999.90;;;;;;;-1.98;65.72;102640.78;4994528;27;97133;-68
2022/01/15 08:53:44;;;;;;;1999.90;999.90;;;;;;;-1.95;65.16;102643.72;5002083;28;98074;-67
2022/01/15 08:56:12;;;;;;;1999.90;999.90;;;;;;;-1.94;66.05;102642.94;4999268;28;97274;-66
2022/01/15 08:58:40;;;;;;;1999.90;999.90;;;;;;;-1.94;65.96;102644.63;5003696;28;97318;-69
2022/01/15 09:01:13;;;;;;;1999.90;999.90;;;;;;;-1.92;65.82;102636.19;4996560;28;98800;-67
2022/01/15 09:03:42;;;;;;;1999.90;999.90;;;;;;;-1.88;65.74;102630.50;5002921;28;98833;-67
2022/01/15 09:06:10;;;;;;;1999.90;999.90;;;;;;;-1.87;65.27;102634.94;5004855;28;97392;-67
2022/01/15 09:08:39;;;;;;;1999.90;999.90;;;;;;;-1.86;65.53;102635.88;5010852;28;96928;-68
2022/01/15 09:11:07;;;;;;;1999.90;999.90;;;;;;;-1.85;65.45;102637.72;4999007;28;97538;-68
2022/01/15 09:13:35;;;;;;;1999.90;999.90;;;;;;;-1.83;65.14;102635.28;4999689;28;98745;-68
2022/01/15 09:16:03;;;;;;;1999.90;999.90;;;;;;;-1.80;65.06;102635.56;5011080;28;96916;-68
2022/01/15 09:18:30;;;;;;;1999.90;999.90;;;;;;;-1.79;65.50;102637.41;5014762;28;97085;-68
2022/01/15 09:20:59;;;;;;;1999.90;999.90;;;;;;;-1.78;65.11;102627.13;4984628;28;99284;-68
2022/01/15 09:23:27;;;;;;;1999.90;999.90;;;;;;;-1.75;65.27;102629.13;5003877;28;97184;-68
2022/01/15 09:25:58;;;;;;;1999.90;999.90;;;;;;;-1.75;64.88;102622.22;5004677;28;96870;-68
2022/01/15 09:31:12;;;;;;;1999.90;999.90;;;;;;;-1.70;65.64;102627.88;5003625;28;97353;-67
2022/01/15 09:33:39;;;;;;;1999.90;999.90;;;;;;;-1.70;65.30;102634.03;5005033;28;97441;-69
2022/01/15 09:36:07;;;;;;;1999.90;999.90;;;;;;;-1.69;65.00;102632.34;5009507;28;98094;-68
2022/01/15 09:38:35;;;;;;;1999.90;999.90;;;;;;;-1.70;65.14;102633.09;5006145;28;97101;-68
2022/01/15 09:41:04;;;;;;;1999.90;999.90;;;;;;;-1.71;65.50;102637.41;4994637;28;100464;-67
2022/01/15 09:43:32;;;;;;;1999.90;999.90;;;;;;;-1.67;65.32;102634.34;4998594;28;100287;-71
2022/01/15 09:46:00;;;;;;;1999.90;999.90;;;;;;;-1.64;65.60;102634.66;5000106;28;96714;-68
2022/01/15 09:48:30;;;;;;;1999.90;999.90;;;;;;;-1.63;65.49;102633.84;5000880;28;99322;-68
2022/01/15 09:50:58;;;;;;;1999.90;999.90;;;;;;;-1.60;65.32;102635.88;4998537;28;98347;-68
2022/01/15 09:53:26;;;;;;;1999.90;999.90;;;;;;;-1.59;64.83;102633.41;4993985;28;98453;-68
2022/01/15 09:55:54;;;;;;;1999.90;999.90;;;;;;;-1.56;65.20;102633.69;5010859;27;97262;-68
2022/01/15 09:58:23;;;;;;;1999.90;999.90;;;;;;;-1.52;65.30;102629.72;5000676;28;97294;-68
2022/01/15 10:00:51;;;;;;;1999.90;999.90;;;;;;;-1.49;65.04;102630.94;4996091;28;98017;-68
2022/01/15 10:03:19;;;;;;;1999.90;999.90;;;;;;;-1.49;65.56;102635.25;4997492;28;99350;-69
2022/01/15 10:05:49;;;;;;;1999.90;999.90;;;;;;;-1.46;65.37;102631.25;4995918;28;97251;-68
2022/01/15 10:08:20;;;;;;;1999.90;999.90;;;;;;;-1.43;65.49;102618.47;4997975;28;96790;-68
2022/01/15 10:10:49;;;;;;;1999.90;999.90;;;;;;;-1.38;65.31;102629.38;4999018;28;97676;-68
2022/01/15 10:13:18;;;;;;;1999.90;999.90;;;;;;;-1.31;65.42;102623.97;4998697;28;97687;-67
2022/01/15 10:15:49;;;;;;;1999.90;999.90;;;;;;;-1.29;65.13;102617.22;5004876;28;97081;-67
2022/01/15 10:18:22;;;;;;;1999.90;999.90;;;;;;;-1.24;64.78;102616.91;4992778;28;96732;-68
2022/01/15 10:20:50;;;;;;;1999.90;999.90;;;;;;;-1.21;64.87;102608.41;4999272;28;99632;-67
2022/01/15 10:23:19;;;;;;;1999.90;999.90;;;;;;;-1.18;65.15;102616.56;4997562;28;98171;-68
2022/01/15 10:26:12;;;;;;;1999.90;999.90;;;;;;;-1.23;65.12;102607.38;5000532;28;97501;-67
2022/01/15 10:28:54;;;;;;;1999.90;999.90;;;;;;;-1.18;64.94;102613.97;5000904;28;96977;-67
2022/01/15 10:31:24;;;;;;;1999.90;999.90;;;;;;;-1.14;65.19;102610.88;5005765;28;96884;-67
2022/01/15 10:33:53;;;;;;;1999.90;999.90;;;;;;;-1.09;64.79;102612.25;5004719;28;97035;-67
2022/01/15 10:36:22;;;;;;;1999.90;999.90;;;;;;;-1.02;64.79;102604.22;5007457;28;97292;-67
2022/01/15 10:38:50;;;;;;;1999.90;999.90;;;;;;;-0.98;65.29;102601.13;4998975;28;97473;-67
2022/01/15 10:41:31;;;;;;;1999.90;999.90;;;;;;;-0.93;64.67;102599.88;5004607;28;98012;-67
2022/01/15 10:43:59;;;;;;;1999.90;999.90;;;;;;;-0.95;64.60;102597.13;5000285;28;100511;-67
2022/01/15 10:46:36;;;;;;;1999.90;999.90;;;;;;;-0.92;64.61;102594.78;4982376;28;96869;-67
2022/01/15 10:49:24;;;;;;;1999.90;999.90;;;;;;;-0.88;64.61;102601.22;5000547;28;96942;-68
2022/01/15 10:52:12;;;;;;;1999.90;999.90;;;;;;;-0.83;64.85;102597.38;4987058;28;97830;-68
2022/01/15 10:55:00;;;;;;;1999.90;999.90;;;;;;;-0.79;64.51;102599.50;5010253;27;100766;-69
2022/01/15 10:57:30;;;;;;;1999.90;999.90;;;;;;;-0.73;64.47;102594.84;5008940;28;98682;-69
2022/01/15 11:00:08;;;;;;;1999.90;999.90;;;;;;;-0.70;64.84;102587.28;5007578;28;96778;-68
2022/01/15 11:02:38;;;;;;;1999.90;999.90;;;;;;;-0.64;64.18;102585.28;5007538;28;98841;-68
2022/01/15 11:05:20;;;;;;;1999.90;999.90;;;;;;;-0.62;64.20;102594.19;5006291;28;97581;-68
2022/01/15 11:07:48;;;;;;;1999.90;999.90;;;;;;;-0.57;64.28;102577.22;5005830;28;97223;-67